KJEFKVIH

Guest
Details From KJEF - Jefferson City Mem
To KVIH - ROLLA NATIONAL
Flight Number -
Tags generated
Created
Modified
Stats Distance 34 nm / 63 km
Max Altitude 100 ft / 30 m
Waypoints 3
Social Downloads 0
Likes 0
Share VATSIM

Download

Looking for another format? Having issues loading an existing format? Contact us
Advertisement - Login to hide

Notes

Basic altitude profile: - Ascent Rate: 500ft/min - Ascent Speed: 90kts - Cruise Altitude: 6000ft - Cruise Speed: 420kts - Descent Rate: 500ft/min - Descent Speed: 250kts Options: - Use NATs: yes - Use PACOTS: yes - Use low airways: yes - Use high airways: no

Route

KJEF BNTON KVIH

ID Type Via Altitude Latitude Longitude Leg Dist Tot Dist Heading (true) Name
O KJEF APT - 0 ft / 0 m 38.59112˚ -92.15658˚ - 0 nm - Jefferson City Mem
BNTON FIX - 100 ft / 30 m 38.59520˚ -92.16285˚ 0 nm 0 nm 310° / 310° -
O KVIH APT - 0 ft / 0 m 38.12743˚ -91.76952˚ 33 nm 34 nm 146° / 147° ROLLA NATIONAL

Altitude Profile

Advertisement - Login to hide

KJEF

Details ICAO KJEF (JEF)
Name Jefferson City Mem
Region United States
Timezone America/Chicago (UTC-6.0)
Stats Elevation 549 ft / 167 m (AMSL)
Location 38.591123° -92.156582°
Runways 2
Magnetic Variation 0.074° W

METAR

KJEF 180253Z 22006KT 10SM OVC028 08/06 A3007 RMK AO2 SLP174 T00830061 50001

Decode

TAF

Not found

Departure Runways

ID Width Length Bearing (true) Bearing (mag) Surface Threshold Offset Overrun Length
09 75 ft / 23 m 3,394 ft / 1,034 m 91.09° 91.16° Concrete 0 ft / 0 m 0 ft / 0 m
12 100 ft / 30 m 5,995 ft / 1,827 m 122.63° 122.70° Asphalt 0 ft / 0 m 0 ft / 0 m
27 75 ft / 23 m 3,394 ft / 1,034 m 271.10° 271.17° Concrete 0 ft / 0 m 0 ft / 0 m
30 100 ft / 30 m 5,995 ft / 1,827 m 302.64° 302.71° Asphalt 0 ft / 0 m 0 ft / 0 m

KVIH

Details ICAO KVIH
Name ROLLA NATIONAL
Region United States
Timezone America/Chicago (UTC-6.0)
Stats Elevation 1,148 ft / 350 m (AMSL)
Location 38.127434° -91.769516°
Runways 3
Magnetic Variation 0.322° W

METAR

KVIH 180253Z AUTO 25006KT 9SM OVC016 07/07 A3007 RMK AO2 SLP186 T00720072 50008

Decode

TAF

Not found

Destination Runways

ID Width Length Bearing (true) Bearing (mag) Surface Threshold Offset Overrun Length
04 100 ft / 30 m 5,499 ft / 1,676 m 46.44° 46.76° Asphalt 213 ft / 65 m 0 ft / 0 m
13 100 ft / 30 m 5,500 ft / 1,676 m 136.65° 136.97° Asphalt 0 ft / 0 m 0 ft / 0 m
18 75 ft / 23 m 5,005 ft / 1,525 m 180.88° 181.20° Asphalt 0 ft / 0 m 0 ft / 0 m
22 100 ft / 30 m 5,499 ft / 1,676 m 226.45° 226.77° Asphalt 0 ft / 0 m 0 ft / 0 m
31 100 ft / 30 m 5,500 ft / 1,676 m 316.66° 316.98° Asphalt 0 ft / 0 m 0 ft / 0 m
36 75 ft / 23 m 5,005 ft / 1,525 m 0.88° 1.20° Asphalt 0 ft / 0 m 0 ft / 0 m